Time;durP1;ratioP1;P1;durP2;ratioP2;P2;SDS_P1;SDS_P2;PMS_P1;PMS_P2;Temp;Humidity;BMP_temperature;BMP_pressure;BME280_temperature;BME280_humidity;BME280_pressure;Samples;Min_cycle;Max_cycle;Signal;HPM_P1;HPM_P2
2023/02/21 02:14:06;;;;;;;2.30;1.10;;;;;;;6.36;86.71;99032.75;107366;1254;80905;-57
2023/02/21 02:16:55;;;;;;;2.10;1.20;;;;;;;6.33;86.71;99036.85;107365;1255;99545;-57
2023/02/21 02:20:19;;;;;;;4.00;1.30;;;;;;;6.30;86.76;99038.19;107400;1253;87918;-60
2023/02/21 02:23:32;;;;;;;4.20;1.50;;;;;;;6.31;86.69;99034.98;107340;1254;95146;-60
2023/02/21 02:26:57;;;;;;;2.80;1.60;;;;;;;6.30;86.62;99039.39;107358;1254;79929;-58
2023/02/21 02:30:04;;;;;;;3.80;1.30;;;;;;;6.32;86.65;99037.41;106837;1265;80987;-56
2023/02/21 02:33:13;;;;;;;3.10;1.30;;;;;;;6.37;86.55;99033.84;107347;1255;99413;-57
2023/02/21 02:35:54;;;;;;;2.40;1.20;;;;;;;6.42;86.15;99035.18;107394;1257;89126;-58
2023/02/21 02:38:47;;;;;;;3.80;1.20;;;;;;;6.46;85.58;99038.60;107383;1254;94904;-63
2023/02/21 02:41:34;;;;;;;3.40;1.00;;;;;;;6.43;85.21;99033.79;107363;1254;78785;-62
2023/02/21 02:44:23;;;;;;;3.10;1.20;;;;;;;6.38;85.23;99035.35;107396;1254;81194;-60
2023/02/21 02:47:17;;;;;;;4.20;1.40;;;;;;;6.36;84.84;99036.34;107376;1254;97951;-61
2023/02/21 02:49:58;;;;;;;4.40;1.40;;;;;;;6.32;84.24;99032.71;107458;1255;88008;-63
2023/02/21 02:52:37;;;;;;;5.50;1.20;;;;;;;6.30;84.26;99029.40;107357;1255;94863;-64
2023/02/21 02:55:37;;;;;;;6.00;2.20;;;;;;;6.29;84.20;99026.38;107350;1256;81398;-63
2023/02/21 02:58:15;;;;;;;3.30;1.50;;;;;;;6.32;84.11;99032.10;107374;1254;82677;-63
2023/02/21 03:01:08;;;;;;;3.40;1.50;;;;;;;6.38;83.85;99025.87;107341;1254;100093;-59
2023/02/21 03:04:09;;;;;;;5.70;1.50;;;;;;;6.43;83.82;99031.17;107374;1254;87066;-64
2023/02/21 03:06:55;;;;;;;5.70;1.80;;;;;;;6.43;83.53;99031.80;107406;1255;94349;-63
2023/02/21 03:09:44;;;;;;;3.20;1.10;;;;;;;6.45;83.44;99033.35;107380;1256;82664;-56
2023/02/21 03:12:28;;;;;;;4.20;1.40;;;;;;;6.46;83.45;99029.30;107391;1258;81527;-58
2023/02/21 03:15:11;;;;;;;4.30;2.30;;;;;;;6.48;83.30;99019.00;107375;1257;99943;-59
2023/02/21 03:17:57;;;;;;;3.80;1.30;;;;;;;6.50;83.12;99028.64;107279;1256;88587;-58
2023/02/21 03:20:37;;;;;;;4.50;1.40;;;;;;;6.54;82.89;99027.42;107357;1255;93855;-62
2023/02/21 03:23:19;;;;;;;6.60;2.40;;;;;;;6.57;82.96;99031.76;107377;1255;79321;-63
2023/02/21 03:26:06;;;;;;;5.70;1.80;;;;;;;6.56;82.29;99022.65;107350;1255;81505;-63
2023/02/21 03:28:50;;;;;;;5.60;1.90;;;;;;;6.55;81.98;99026.42;107347;1255;99065;-63
2023/02/21 03:31:36;;;;;;;5.70;1.60;;;;;;;6.51;82.23;99027.77;107372;1255;88557;-64
2023/02/21 03:34:24;;;;;;;6.90;1.40;;;;;;;6.42;82.03;99027.72;107337;1256;94554;-60
2023/02/21 03:37:02;;;;;;;;;;;;;;;6.37;82.07;99027.27;107375;1253;80272;-58
2023/02/21 03:39:45;;;;;;;5.70;1.70;;;;;;;6.38;82.25;99028.95;107363;1258;82503;-63
2023/02/21 03:42:26;;;;;;;4.10;1.60;;;;;;;6.34;82.19;99032.90;107320;1254;99557;-63
2023/02/21 03:45:05;;;;;;;5.30;1.90;;;;;;;6.29;81.99;99030.27;107375;1258;89515;-57
2023/02/21 03:47:48;;;;;;;5.60;1.90;;;;;;;6.19;82.08;99034.48;107350;1254;93735;-56
2023/02/21 03:50:27;;;;;;;9.50;2.50;;;;;;;6.09;81.71;99024.83;107349;1254;80247;-62
2023/02/21 03:53:12;;;;;;;10.30;2.70;;;;;;;6.04;81.42;99025.12;107348;1256;81825;-63
2023/02/21 03:55:56;;;;;;;6.40;1.90;;;;;;;6.02;81.05;99031.40;107304;1256;99842;-62
2023/02/21 03:58:40;;;;;;;8.40;2.20;;;;;;;6.04;80.92;99028.20;107349;1254;87191;-60
2023/02/21 04:01:18;;;;;;;6.70;2.30;;;;;;;6.06;80.85;99039.29;107349;1254;93859;-56
2023/02/21 04:03:57;;;;;;;7.00;2.60;;;;;;;6.05;80.53;99041.95;107308;1256;80174;-61
2023/02/21 04:06:34;;;;;;;7.40;2.40;;;;;;;6.04;80.64;99038.73;107373;1256;82996;-62
2023/02/21 04:09:17;;;;;;;8.70;3.00;;;;;;;6.04;79.92;99041.42;107318;1254;99427;-60
2023/02/21 04:11:54;;;;;;;12.60;3.50;;;;;;;6.06;79.94;99046.70;107373;1256;89044;-60
2023/02/21 04:14:29;;;;;;;11.20;3.60;;;;;;;6.07;79.33;99047.36;107368;1254;94401;-58
2023/02/21 04:17:07;;;;;;;9.60;3.90;;;;;;;6.07;79.20;99049.02;107291;1255;78854;-58
2023/02/21 04:19:45;;;;;;;10.40;3.20;;;;;;;6.07;79.14;99043.02;107478;1256;83949;-61
2023/02/21 04:22:21;;;;;;;8.80;2.10;;;;;;;6.04;79.07;99034.77;107363;1258;98509;-61
2023/02/21 04:25:05;;;;;;;8.20;2.30;;;;;;;6.01;78.64;99024.05;107343;1255;87774;-58
2023/02/21 04:27:44;;;;;;;8.90;2.50;;;;;;;5.99;78.89;99024.55;107336;1254;94503;-58
2023/02/21 04:30:23;;;;;;;9.70;2.10;;;;;;;5.99;78.38;99029.85;107347;1254;79467;-59
2023/02/21 04:33:02;;;;;;;9.00;2.20;;;;;;;5.97;78.22;99022.22;107380;1255;84085;-60
2023/02/21 04:35:50;;;;;;;11.70;2.80;;;;;;;5.99;77.04;99030.31;107360;1255;99146;-61
2023/02/21 04:38:36;;;;;;;7.90;2.40;;;;;;;6.00;77.65;99040.84;107351;1255;88626;-58
2023/02/21 04:41:16;;;;;;;11.30;2.80;;;;;;;5.97;77.04;99043.48;107334;1256;95246;-58
2023/02/21 04:44:04;;;;;;;11.60;2.20;;;;;;;5.96;77.11;99049.04;107344;1254;78996;-59
2023/02/21 04:46:47;;;;;;;9.70;1.90;;;;;;;5.93;76.82;99052.40;107323;1255;82096;-60
2023/02/21 04:49:27;;;;;;;6.30;1.40;;;;;;;5.90;76.48;99049.53;107355;1257;99301;-58
2023/02/21 04:52:10;;;;;;;10.80;2.10;;;;;;;5.90;76.35;99056.47;106819;1256;710607;-58
2023/02/21 04:54:54;;;;;;;8.60;2.00;;;;;;;5.93;76.60;99060.77;107323;1255;94212;-61
2023/02/21 04:57:31;;;;;;;11.50;2.10;;;;;;;5.94;76.46;99059.77;107347;1255;78281;-60
2023/02/21 05:00:10;;;;;;;11.70;2.70;;;;;;;5.97;75.52;99061.02;107355;1254;82282;-62
2023/02/21 05:02:56;;;;;;;8.40;1.70;;;;;;;5.99;75.53;99055.67;107353;1255;99893;-62
2023/02/21 05:05:38;;;;;;;9.50;1.90;;;;;;;5.98;75.57;99054.27;107325;1256;88437;-60
2023/02/21 05:08:15;;;;;;;9.30;1.90;;;;;;;5.97;75.56;99060.48;107377;1258;93618;-59
2023/02/21 05:10:57;;;;;;;8.00;1.40;;;;;;;5.97;75.57;99051.33;107326;1255;78875;-57
2023/02/21 05:13:37;;;;;;;7.70;1.40;;;;;;;5.96;75.40;99061.83;107371;1254;81268;-59
2023/02/21 05:16:12;;;;;;;7.60;1.40;;;;;;;5.96;75.62;99063.80;107334;1255;99052;-60
2023/02/21 05:18:48;;;;;;;7.10;1.60;;;;;;;5.96;75.39;99050.11;107340;1256;88689;-57
2023/02/21 05:21:26;;;;;;;10.30;1.70;;;;;;;5.96;75.15;99056.92;107364;1254;95094;-58
2023/02/21 05:24:06;;;;;;;5.80;1.60;;;;;;;5.96;75.38;99054.65;107360;1256;81697;-61
2023/02/21 05:26:46;;;;;;;6.90;1.80;;;;;;;5.99;75.19;99065.73;107363;1255;82860;-60
2023/02/21 05:29:25;;;;;;;7.80;1.60;;;;;;;6.02;74.80;99057.55;107349;1256;99230;-56
2023/02/21 05:32:02;;;;;;;9.00;1.70;;;;;;;6.06;74.14;99051.62;107341;1255;88039;-57
2023/02/21 05:34:47;;;;;;;7.60;1.50;;;;;;;6.10;74.76;99057.09;107313;1254;93312;-62
2023/02/21 05:37:30;;;;;;;6.70;2.30;;;;;;;6.08;74.58;99049.11;107318;1255;79416;-61
2023/02/21 05:40:13;;;;;;;8.70;2.20;;;;;;;6.06;74.41;99063.31;107335;1258;84261;-56
2023/02/21 05:42:48;;;;;;;11.00;2.30;;;;;;;6.04;73.94;99061.91;107371;1254;99929;-61
2023/02/21 05:45:24;;;;;;;14.70;2.40;;;;;;;6.03;74.48;99066.18;107355;1255;87774;-57
2023/02/21 05:48:02;;;;;;;5.80;1.40;;;;;;;6.02;74.43;99069.56;107339;1254;93835;-58
2023/02/21 05:50:44;;;;;;;5.50;1.50;;;;;;;6.02;74.34;99068.85;107305;1255;78105;-61
2023/02/21 05:53:26;;;;;;;7.00;1.70;;;;;;;6.01;74.68;99071.78;107331;1256;81247;-60
2023/02/21 05:56:08;;;;;;;9.70;2.10;;;;;;;6.00;74.95;99079.77;107310;1256;100035;-60
2023/02/21 05:58:50;;;;;;;7.30;1.40;;;;;;;6.01;75.06;99078.58;107341;1257;86963;-61
2023/02/21 06:01:38;;;;;;;6.70;1.40;;;;;;;6.05;75.21;99076.05;107290;1256;95139;-61
2023/02/21 06:04:26;;;;;;;9.70;1.50;;;;;;;6.09;75.15;99085.17;107353;1255;79187;-61
2023/02/21 06:07:06;;;;;;;8.50;1.50;;;;;;;6.13;75.25;99089.70;107334;1254;83396;-56
2023/02/21 06:09:51;;;;;;;9.10;1.70;;;;;;;6.16;75.24;99091.84;107296;1255;99044;-58
2023/02/21 06:12:33;;;;;;;10.10;2.60;;;;;;;6.16;75.12;99082.96;107341;1256;89668;-58
2023/02/21 06:15:12;;;;;;;9.40;1.50;;;;;;;6.15;75.24;99092.16;107243;1254;95816;-62
2023/02/21 06:17:52;;;;;;;12.10;1.90;;;;;;;6.11;75.09;99084.78;107337;1255;79920;-61
2023/02/21 06:20:35;;;;;;;10.60;1.80;;;;;;;6.13;75.06;99094.39;107330;1256;83037;-59
2023/02/21 06:23:21;;;;;;;10.80;1.90;;;;;;;6.13;74.89;99100.42;107346;1254;99575;-62
2023/02/21 06:26:06;;;;;;;10.70;2.10;;;;;;;6.13;74.71;99101.73;107347;1256;88696;-59
2023/02/21 06:28:46;;;;;;;8.80;2.10;;;;;;;6.16;74.40;99098.48;107329;1254;95092;-61
2023/02/21 06:31:26;;;;;;;10.60;2.10;;;;;;;6.20;74.32;99100.58;107322;1256;78018;-58
2023/02/21 06:34:09;;;;;;;6.70;2.00;;;;;;;6.25;74.20;99101.89;107317;1254;82495;-62
2023/02/21 06:36:51;;;;;;;8.80;1.80;;;;;;;6.29;74.14;99101.80;107376;1255;99533;-62
2023/02/21 06:39:33;;;;;;;9.20;2.00;;;;;;;6.32;74.20;99092.46;107317;1255;88915;-61
2023/02/21 06:42:14;;;;;;;11.90;2.70;;;;;;;6.40;74.18;99105.93;107311;1256;94198;-58
2023/02/21 06:44:55;;;;;;;11.70;2.70;;;;;;;6.44;73.98;99109.35;107377;1255;79131;-56
2023/02/21 06:47:40;;;;;;;10.60;2.80;;;;;;;6.44;74.08;99115.26;107330;1254;82643;-56
2023/02/21 06:50:21;;;;;;;11.20;2.50;;;;;;;6.45;74.15;99125.10;107352;1257;99935;-57
2023/02/21 06:53:06;;;;;;;10.10;2.20;;;;;;;6.45;73.80;99131.20;107337;1255;88532;-60
2023/02/21 06:55:51;;;;;;;9.20;2.20;;;;;;;6.44;73.41;99121.15;107303;1256;92183;-60
2023/02/21 06:58:30;;;;;;;;;;;;;;;6.43;73.72;99140.70;107343;1257;78649;-56
2023/02/21 07:01:13;;;;;;;10.60;2.50;;;;;;;6.40;73.72;99144.36;107310;1255;82866;-61
2023/02/21 07:03:56;;;;;;;8.80;2.20;;;;;;;6.43;73.76;99145.77;107314;1254;99331;-58
2023/02/21 07:06:38;;;;;;;7.30;1.60;;;;;;;6.45;73.72;99143.37;107362;1256;89448;-62
2023/02/21 07:09:20;;;;;;;11.20;2.40;;;;;;;6.59;74.04;99150.91;107316;1260;94129;-61
2023/02/21 07:12:04;;;;;;;8.60;2.40;;;;;;;6.69;74.09;99165.89;107343;1256;77544;-63
2023/02/21 07:14:39;;;;;;;8.60;2.50;;;;;;;6.71;73.92;99164.59;107398;1254;85548;-57
2023/02/21 07:17:20;;;;;;;8.70;2.60;;;;;;;6.77;73.90;99168.22;107329;1256;99160;-58
2023/02/21 07:19:55;;;;;;;12.70;3.00;;;;;;;6.83;74.10;99178.64;107362;1253;86756;-58
2023/02/21 07:22:37;;;;;;;12.20;2.60;;;;;;;6.83;73.85;99178.96;107350;1255;94597;-58
2023/02/21 07:25:17;;;;;;;12.50;3.30;;;;;;;6.76;73.67;99189.80;107356;1255;79787;-59
2023/02/21 07:27:55;;;;;;;15.00;2.70;;;;;;;6.71;73.51;99195.92;107403;1254;82013;-57
2023/02/21 07:30:34;;;;;;;13.60;2.80;;;;;;;6.70;73.63;99197.48;107349;1254;98213;-63
2023/02/21 07:33:10;;;;;;;10.50;2.50;;;;;;;6.75;73.90;99210.95;107307;1254;86118;-63
2023/02/21 07:35:53;;;;;;;12.40;2.80;;;;;;;6.80;74.29;99221.97;107314;1254;95370;-60
2023/02/21 07:38:32;;;;;;;10.00;3.00;;;;;;;6.81;74.36;99223.75;107318;1258;77852;-57
2023/02/21 07:41:10;;;;;;;10.40;2.40;;;;;;;6.76;74.08;99232.75;107369;1258;82327;-60
2023/02/21 07:43:47;;;;;;;7.20;2.70;;;;;;;6.75;74.24;99234.23;107299;1256;99360;-61
2023/02/21 07:46:30;;;;;;;8.00;2.90;;;;;;;6.77;74.29;99244.86;107337;1256;89395;-61
2023/02/21 07:49:12;;;;;;;9.30;2.50;;;;;;;6.81;74.42;99247.55;107330;1254;93625;-57
2023/02/21 07:51:51;;;;;;;;;;;;;;;6.83;74.34;99235.87;107322;1258;78386;-57
2023/02/21 07:54:35;;;;;;;8.50;2.70;;;;;;;6.80;74.21;99249.17;107354;1255;82845;-62
2023/02/21 07:57:10;;;;;;;11.10;2.60;;;;;;;6.75;74.13;99252.10;107340;1255;99283;-61
2023/02/21 07:59:52;;;;;;;10.80;2.50;;;;;;;6.72;74.26;99261.75;107292;1259;85887;-59
2023/02/21 08:02:32;;;;;;;12.50;3.10;;;;;;;6.72;74.46;99258.27;107351;1255;94982;-57
2023/02/21 08:05:11;;;;;;;9.60;2.70;;;;;;;6.71;74.58;99271.89;107308;1256;79799;-63
2023/02/21 08:07:54;;;;;;;10.70;3.10;;;;;;;6.76;74.57;99270.06;107329;1254;81954;-62
2023/02/21 08:10:34;;;;;;;12.10;3.20;;;;;;;6.75;74.73;99270.08;107334;1254;99212;-59
2023/02/21 08:13:13;;;;;;;14.30;2.90;;;;;;;6.76;74.77;99267.55;107325;1257;89458;-63
2023/02/21 08:15:51;;;;;;;11.10;3.00;;;;;;;6.77;74.77;99271.16;107351;1255;94990;-58
2023/02/21 08:18:27;;;;;;;10.90;2.70;;;;;;;6.81;74.72;99280.16;107359;1254;80368;-59
2023/02/21 08:21:13;;;;;;;10.80;2.70;;;;;;;6.87;74.72;99285.58;107340;1258;81842;-61
2023/02/21 08:23:53;;;;;;;11.70;2.60;;;;;;;6.87;74.51;99286.82;107298;1257;98057;-62
2023/02/21 08:26:41;;;;;;;11.20;2.60;;;;;;;6.93;74.45;99292.40;107323;1255;89342;-62
2023/02/21 08:29:16;;;;;;;8.60;2.60;;;;;;;6.91;74.20;99294.71;107313;1258;94428;-58
2023/02/21 08:31:59;;;;;;;9.10;2.30;;;;;;;6.87;74.22;99293.30;107315;1253;79311;-55
2023/02/21 08:34:40;;;;;;;10.10;2.80;;;;;;;6.88;74.40;99297.28;107353;1254;83289;-61
2023/02/21 08:37:31;;;;;;;8.90;2.60;;;;;;;6.91;74.63;99303.73;107290;1258;99695;-57
2023/02/21 08:40:12;;;;;;;10.50;2.10;;;;;;;6.93;74.53;99306.16;107303;1255;88584;-61
2023/02/21 08:42:55;;;;;;;10.10;2.40;;;;;;;6.96;74.42;99303.14;107318;1254;94434;-57
2023/02/21 08:45:33;;;;;;;10.20;2.10;;;;;;;7.03;74.62;99310.76;107338;1256;79615;-63
2023/02/21 08:48:08;;;;;;;11.00;3.00;;;;;;;7.14;74.45;99314.36;107343;1255;81743;-62
2023/02/21 08:50:44;;;;;;;13.70;2.90;;;;;;;7.20;74.32;99317.93;107348;1256;97737;-60
2023/02/21 08:53:19;;;;;;;13.00;2.80;;;;;;;7.30;74.36;99324.70;107365;1256;89065;-60
2023/02/21 08:56:05;;;;;;;12.60;2.80;;;;;;;7.31;74.26;99327.10;107327;1258;92773;-63
2023/02/21 08:58:44;;;;;;;13.00;3.40;;;;;;;7.32;74.20;99336.13;107337;1258;76977;-61
2023/02/21 09:01:20;;;;;;;10.00;2.40;;;;;;;7.27;74.19;99338.19;107348;1258;82132;-62
2023/02/21 09:04:02;;;;;;;16.60;2.90;;;;;;;7.20;74.36;99342.10;107325;1254;98350;-59
2023/02/21 09:06:42;;;;;;;11.70;2.90;;;;;;;7.23;74.45;99351.95;107328;1254;87950;-57
2023/02/21 09:09:19;;;;;;;9.80;2.80;;;;;;;7.21;74.30;99341.48;107353;1254;95712;-61
2023/02/21 09:11:56;;;;;;;8.40;2.40;;;;;;;7.16;74.33;99356.70;107297;1256;78869;-62
2023/02/21 09:14:35;;;;;;;15.00;4.00;;;;;;;7.13;74.54;99358.86;107346;1258;81193;-57
2023/02/21 09:17:18;;;;;;;10.70;2.70;;;;;;;7.17;74.57;99363.77;107337;1258;99020;-57
2023/02/21 09:19:56;;;;;;;12.20;3.00;;;;;;;7.25;74.63;99368.13;107368;1255;86912;-58
2023/02/21 09:22:38;;;;;;;10.50;2.50;;;;;;;7.29;74.62;99364.15;107331;1255;92541;-59
2023/02/21 09:25:16;;;;;;;10.40;2.40;;;;;;;7.33;75.05;99365.14;107329;1258;80715;-62
2023/02/21 09:27:59;;;;;;;10.80;3.20;;;;;;;7.41;75.06;99370.02;107339;1257;81848;-62
2023/02/21 09:30:47;;;;;;;10.50;3.00;;;;;;;7.39;74.96;99372.77;107318;1256;98201;-62
2023/02/21 09:33:24;;;;;;;12.00;3.00;;;;;;;7.43;74.69;99376.15;107348;1258;89086;-60
2023/02/21 09:36:01;;;;;;;9.20;1.90;;;;;;;7.43;74.98;99377.30;107353;1255;94150;-58
2023/02/21 09:38:41;;;;;;;10.50;2.50;;;;;;;7.49;75.02;99383.48;107360;1256;78894;-57
2023/02/21 09:41:22;;;;;;;9.50;2.20;;;;;;;7.50;75.02;99394.30;107329;1254;83007;-57
2023/02/21 09:44:00;;;;;;;8.40;2.20;;;;;;;7.56;75.00;99400.42;107377;1255;98117;-63
2023/02/21 09:46:45;;;;;;;7.30;2.60;;;;;;;7.55;75.08;99409.70;107317;1254;88869;-62
2023/02/21 09:49:26;;;;;;;7.80;1.90;;;;;;;7.61;75.18;99403.45;107334;1256;94366;-57
2023/02/21 09:52:05;;;;;;;8.30;2.40;;;;;;;7.66;75.27;99418.01;107351;1256;81065;-57
2023/02/21 09:54:47;;;;;;;11.70;2.70;;;;;;;7.68;75.08;99423.23;107328;1254;81547;-61
2023/02/21 09:57:28;;;;;;;11.80;3.70;;;;;;;7.72;75.31;99427.61;107399;1254;99769;-61
2023/02/21 10:00:07;;;;;;;8.70;3.10;;;;;;;7.75;75.22;99429.38;107331;1258;86781;-57
2023/02/21 10:02:58;;;;;;;8.20;2.60;;;;;;;7.70;75.26;99434.66;107311;1258;94882;-57
2023/02/21 10:05:48;;;;;;;9.70;2.90;;;;;;;7.64;75.36;99438.52;107373;1258;79402;-62
2023/02/21 10:08:36;;;;;;;9.90;3.10;;;;;;;7.62;75.50;99441.42;107362;1257;81092;-61
2023/02/21 10:11:35;;;;;;;9.70;2.60;;;;;;;7.72;75.67;99443.28;107298;1254;99784;-60
2023/02/21 10:14:28;;;;;;;10.00;2.60;;;;;;;7.74;75.57;99452.65;107323;1258;86839;-59
2023/02/21 10:17:23;;;;;;;10.60;2.70;;;;;;;7.84;75.75;99453.48;107350;1259;95344;-58
2023/02/21 10:20:09;;;;;;;11.20;3.00;;;;;;;7.98;75.68;99456.90;107336;1259;80828;-63
2023/02/21 10:22:49;;;;;;;9.90;3.00;;;;;;;8.10;75.51;99457.64;107351;1254;81556;-58
2023/02/21 10:25:29;;;;;;;9.00;2.80;;;;;;;8.09;75.38;99464.62;107365;1255;99414;-57
2023/02/21 10:28:16;;;;;;;10.80;3.20;;;;;;;8.05;75.50;99464.92;107361;1259;89425;-57
2023/02/21 10:31:00;;;;;;;10.50;3.80;;;;;;;8.05;75.86;99471.42;107337;1254;93219;-57
2023/02/21 10:33:42;;;;;;;13.10;3.10;;;;;;;8.01;76.22;99462.25;107371;1257;80092;-63
2023/02/21 10:36:24;;;;;;;8.20;2.80;;;;;;;7.95;76.28;99469.48;107387;1254;82739;-62
2023/02/21 10:39:05;;;;;;;11.20;3.40;;;;;;;7.87;76.26;99470.23;107326;1258;99977;-59
2023/02/21 10:41:43;;;;;;;13.70;4.30;;;;;;;7.85;76.49;99466.39;107375;1255;89042;-63
2023/02/21 10:44:30;;;;;;;9.00;3.10;;;;;;;7.89;76.46;99466.59;107343;1255;95249;-62
2023/02/21 10:47:18;;;;;;;6.70;2.60;;;;;;;7.92;76.20;99478.27;107300;1258;79568;-61
2023/02/21 10:50:08;;;;;;;11.90;3.20;;;;;;;7.88;76.23;99481.34;107336;1260;82343;-61
2023/02/21 10:52:54;;;;;;;11.50;3.30;;;;;;;7.78;76.02;99481.21;107352;1260;99666;-59
2023/02/21 10:55:32;;;;;;;12.50;3.90;;;;;;;7.69;75.90;99483.70;107380;1254;87007;-58
2023/02/21 10:58:31;;;;;;;12.30;4.70;;;;;;;7.70;75.95;99490.33;107344;1259;92928;-58
2023/02/21 11:01:31;;;;;;;11.30;3.80;;;;;;;7.77;75.93;99487.25;107381;1255;79099;-60
2023/02/21 11:04:23;;;;;;;8.30;3.40;;;;;;;7.71;75.67;99491.55;107369;1255;82829;-62
2023/02/21 11:07:09;;;;;;;10.50;2.80;;;;;;;7.68;75.97;99500.56;107331;1257;99967;-62
2023/02/21 11:10:20;;;;;;;9.40;2.90;;;;;;;7.69;75.92;99505.46;107364;1254;88285;-58
2023/02/21 11:13:25;;;;;;;10.30;4.30;;;;;;;7.66;75.88;99505.80;107114;1261;95348;-58
2023/02/21 11:16:17;;;;;;;;;;;;;;;7.60;75.91;99512.52;107378;1254;77478;-60
2023/02/21 11:19:10;;;;;;;11.00;3.50;;;;;;;7.58;75.80;99516.19;107377;1254;81307;-56
2023/02/21 11:21:59;;;;;;;10.20;3.60;;;;;;;7.66;75.92;99524.41;107346;1254;99781;-57
2023/02/21 11:24:46;;;;;;;7.40;2.60;;;;;;;7.88;75.68;99520.85;107322;1254;86481;-61
2023/02/21 11:27:26;;;;;;;9.80;3.10;;;;;;;8.17;75.59;99517.66;107379;1254;96143;-61
2023/02/21 11:30:18;;;;;;;11.10;3.30;;;;;;;8.22;74.99;99518.94;107325;1258;77467;-62
2023/02/21 11:33:00;;;;;;;8.40;3.40;;;;;;;8.19;74.87;99519.86;107371;1254;83015;-62
2023/02/21 11:35:49;;;;;;;9.40;3.20;;;;;;;8.10;74.68;99528.19;107411;1254;99563;-58
2023/02/21 11:39:03;;;;;;;8.30;2.90;;;;;;;8.04;74.40;99527.56;107373;1259;89056;-58
2023/02/21 11:42:02;;;;;;;10.10;3.50;;;;;;;8.02;74.42;99526.43;107363;1257;94050;-62
2023/02/21 11:45:17;;;;;;;8.80;3.10;;;;;;;8.00;74.64;99524.57;107419;1254;77413;-62
2023/02/21 11:48:05;;;;;;;13.90;4.70;;;;;;;7.97;74.53;99526.43;107373;1254;82231;-59
2023/02/21 11:50:52;;;;;;;8.70;3.20;;;;;;;7.94;74.59;99522.56;107253;1255;98059;-62
2023/02/21 11:53:36;;;;;;;8.50;3.20;;;;;;;8.02;74.48;99521.30;107367;1260;88307;-58
2023/02/21 11:56:27;;;;;;;9.20;3.90;;;;;;;8.12;74.33;99525.20;107355;1254;94895;-58
2023/02/21 11:59:20;;;;;;;13.60;3.60;;;;;;;8.22;74.38;99535.83;107312;1255;79374;-58
2023/02/21 12:02:23;;;;;;;10.00;3.20;;;;;;;8.20;74.14;99539.42;107346;1255;82044;-57
2023/02/21 12:05:20;;;;;;;9.60;3.20;;;;;;;8.09;74.14;99548.02;107293;1254;101160;-62
2023/02/21 12:08:27;;;;;;;9.00;2.80;;;;;;;7.97;73.99;99545.64;107397;1254;88097;-62
2023/02/21 12:11:26;;;;;;;13.00;3.20;;;;;;;7.88;74.87;99548.77;107360;1254;92747;-63
2023/02/21 12:14:16;;;;;;;8.40;3.30;;;;;;;7.97;75.20;99553.33;107349;1254;79917;-57
2023/02/21 12:17:12;;;;;;;6.40;2.80;;;;;;;8.04;75.14;99553.73;107330;1254;82121;-58
2023/02/21 12:20:37;;;;;;;9.30;3.00;;;;;;;8.18;75.27;99552.10;107328;1257;99129;-58
2023/02/21 12:23:37;;;;;;;11.40;3.90;;;;;;;8.39;75.13;99547.12;107352;1260;88748;-58
2023/02/21 12:26:29;;;;;;;12.60;3.50;;;;;;;8.46;75.05;99542.73;107335;1254;95093;-58
2023/02/21 12:29:20;;;;;;;9.80;3.20;;;;;;;8.52;74.62;99554.79;107363;1254;79619;-60
2023/02/21 12:32:20;;;;;;;11.50;3.30;;;;;;;8.57;74.56;99554.66;107397;1258;83091;-59
2023/02/21 12:35:27;;;;;;;9.20;3.20;;;;;;;8.51;74.31;99555.86;107374;1255;97681;-58
2023/02/21 12:38:19;;;;;;;13.30;3.70;;;;;;;8.48;74.13;99556.29;107352;1254;88810;-57
2023/02/21 12:41:08;;;;;;;12.70;4.20;;;;;;;8.58;74.00;99547.79;107336;1254;95362;-59
2023/02/21 12:44:13;;;;;;;9.90;3.30;;;;;;;8.56;73.50;99549.94;107362;1257;79655;-62
2023/02/21 12:47:03;;;;;;;10.80;2.70;;;;;;;8.46;72.78;99551.42;107409;1254;82127;-59
2023/02/21 12:50:01;;;;;;;8.00;2.60;;;;;;;8.43;72.95;99560.32;107330;1254;98905;-61
2023/02/21 12:52:53;;;;;;;11.30;3.00;;;;;;;8.39;72.46;99567.04;107002;1255;533951;-59
2023/02/21 12:55:37;;;;;;;5.60;2.80;;;;;;;8.46;72.96;99566.66;107392;1255;94451;-64
2023/02/21 12:58:25;;;;;;;7.70;2.60;;;;;;;8.58;72.94;99567.77;107347;1254;79068;-63
2023/02/21 13:01:09;;;;;;;7.00;3.10;;;;;;;8.59;72.60;99565.45;107393;1255;80640;-63
2023/02/21 13:04:12;;;;;;;7.60;2.90;;;;;;;8.60;72.22;99567.06;107407;1254;99192;-62
2023/02/21 13:06:59;;;;;;;7.90;2.60;;;;;;;8.62;72.35;99568.81;107365;1254;86678;-63
2023/02/21 13:09:56;;;;;;;9.80;3.20;;;;;;;8.70;72.34;99581.63;107218;1254;94595;-58
2023/02/21 13:12:45;;;;;;;9.50;2.80;;;;;;;8.76;71.62;99578.23;107346;1255;77126;-59
2023/02/21 13:15:32;;;;;;;7.80;2.40;;;;;;;8.81;71.86;99578.55;107431;1254;80301;-62
2023/02/21 13:18:35;;;;;;;7.00;3.20;;;;;;;8.89;71.66;99587.25;107405;1254;99098;-59
2023/02/21 13:21:48;;;;;;;7.80;2.40;;;;;;;8.92;71.35;99593.11;107394;1258;88183;-58
2023/02/21 13:24:59;;;;;;;8.20;2.10;;;;;;;8.80;71.40;99595.56;107376;1254;94457;-61
2023/02/21 13:28:07;;;;;;;6.20;2.20;;;;;;;8.63;71.55;99601.17;107259;1254;79022;-59
2023/02/21 13:30:52;;;;;;;10.20;2.60;;;;;;;8.47;71.76;99608.88;107271;1255;80167;-62
2023/02/21 13:33:45;;;;;;;10.00;2.90;;;;;;;8.41;71.91;99609.21;107381;1254;99476;-58
2023/02/21 13:36:29;;;;;;;10.20;2.90;;;;;;;8.36;72.00;99607.29;107346;1254;88206;-58
2023/02/21 13:39:15;;;;;;;10.40;2.40;;;;;;;8.32;72.12;99614.17;107359;1254;93934;-65
2023/02/21 13:41:59;;;;;;;12.00;3.60;;;;;;;8.32;72.24;99608.09;107330;1257;78929;-57
2023/02/21 13:44:40;;;;;;;9.60;3.00;;;;;;;8.29;72.36;99613.47;107412;1254;81734;-58
2023/02/21 13:47:18;;;;;;;10.50;3.10;;;;;;;8.26;72.16;99620.28;107350;1254;100279;-59
2023/02/21 13:49:58;;;;;;;8.20;2.70;;;;;;;8.17;72.31;99624.85;107391;1259;87862;-61
2023/02/21 13:53:17;;;;;;;10.40;3.10;;;;;;;8.18;72.60;99628.29;107371;1254;94136;-62
2023/02/21 13:56:42;;;;;;;9.90;2.80;;;;;;;8.28;72.87;99632.80;107368;1254;79497;-60
2023/02/21 14:00:05;;;;;;;11.50;3.20;;;;;;;8.14;72.98;99635.63;107364;1254;83334;-62
2023/02/21 14:02:57;;;;;;;11.80;3.70;;;;;;;8.15;73.20;99636.25;106932;1260;99800;-61
2023/02/21 14:06:24;;;;;;;17.50;3.90;;;;;;;8.20;73.02;99637.74;106960;1260;88011;-58
2023/02/21 14:09:07;;;;;;;11.10;3.30;;;;;;;8.06;72.84;99643.90;107374;1254;93334;-57
2023/02/21 14:11:49;;;;;;;11.80;3.20;;;;;;;8.02;72.93;99642.91;107329;1258;80240;-57
2023/02/21 14:14:32;;;;;;;13.10;3.80;;;;;;;8.03;72.68;99648.09;107393;1254;81410;-58
2023/02/21 14:17:14;;;;;;;10.70;3.50;;;;;;;8.04;72.70;99650.00;107402;1254;99061;-58
2023/02/21 14:19:53;;;;;;;13.10;3.20;;;;;;;8.01;72.44;99650.60;107398;1254;86397;-58
2023/02/21 14:22:35;;;;;;;14.00;3.20;;;;;;;8.00;72.57;99652.32;107353;1254;94950;-58
2023/02/21 14:25:27;;;;;;;14.40;4.00;;;;;;;7.96;72.51;99655.67;107365;1258;78100;-61
2023/02/21 14:28:43;;;;;;;13.60;4.00;;;;;;;7.96;72.45;99663.41;107323;1259;83099;-60
2023/02/21 14:31:52;;;;;;;13.50;3.70;;;;;;;7.94;72.08;99663.59;107330;1254;98803;-61
2023/02/21 14:34:38;;;;;;;10.20;3.00;;;;;;;7.89;72.28;99662.59;107196;1254;88967;-61
2023/02/21 14:37:24;;;;;;;13.50;4.40;;;;;;;7.93;72.28;99668.45;107322;1258;94122;-61
2023/02/21 14:40:16;;;;;;;14.50;4.60;;;;;;;7.92;72.25;99669.70;107363;1254;80052;-61
2023/02/21 14:43:06;;;;;;;13.50;5.20;;;;;;;7.90;72.37;99670.46;107387;1254;80792;-62
2023/02/21 14:46:03;;;;;;;13.70;4.80;;;;;;;7.91;72.40;99680.11;107369;1254;99208;-56
2023/02/21 14:49:02;;;;;;;18.00;5.40;;;;;;;7.90;72.48;99679.03;107347;1254;86734;-56
2023/02/21 14:52:44;;;;;;;15.60;4.40;;;;;;;7.80;72.52;99681.89;107370;1255;93410;-57
2023/02/21 14:55:58;;;;;;;16.30;4.80;;;;;;;7.69;72.46;99687.55;106901;1259;79567;-57
2023/02/21 14:59:24;;;;;;;19.60;4.70;;;;;;;7.62;72.59;99686.41;106872;1259;81771;-62
2023/02/21 15:02:17;;;;;;;20.40;4.90;;;;;;;7.55;72.67;99688.93;107066;1262;99864;-62
2023/02/21 15:05:02;;;;;;;16.20;4.90;;;;;;;7.54;72.74;99697.98;107392;1254;86466;-56
2023/02/21 15:07:53;;;;;;;15.00;4.30;;;;;;;7.52;72.76;99697.02;107352;1254;94519;-57
2023/02/21 15:10:41;;;;;;;16.60;4.90;;;;;;;7.50;72.81;99700.98;107373;1254;80836;-57
2023/02/21 15:13:28;;;;;;;26.60;7.10;;;;;;;7.49;72.91;99704.54;107362;1257;81516;-57